Terminal Aerodrome Forecast
Issued by NWS Atlanta, GA

Home | Current Version | Previous Version | Text Only | Print | Product List | Glossary On
Versions: 1 2 3 4 5 6 7 8 9 10 11 12 13 14 15 16 17 18 19 20 21 22 23 24 25 26 27 28 29 30 31 32 33
000
FTUS42 KFFC 241930 AAA
TAFAHN
TAF AMD
KAHN 241930Z 2420/2518 16008KT P6SM SCT050 BKN250
     FM250600 14003KT P6SM SCT025 BKN060
     FM250800 14004KT P6SM SCT007 BKN015
     FM251400 15006KT P6SM BKN025
     FM251600 16008KT P6SM BKN035=

USA.gov is the U.S. government's official web portal to all federal, state and local government web resources and services.